Portland International Airport Portland US
ICAO: KPDX
IATA: PDX
Category: Large
Scheduled Services: Yes

Elevation: 31 ft
TransAlt. 18000 ft.

Airport Communications:
939 ARW COMD POST:124.35
APP:29.92
APP:118.1
ATIS:120.625
CLNC DEL:120.125
DEP:118.1
GND:121.9
ANG BASE OPS:28.05
TWR:118.7
UNICOM:122.95

KPDX Zoom In..

If you have problems with the map follow the link
https://www.worldairports.se/pages/airport.php?
ICAO=KPDX

Runways:

(A) RW 03 length 6000 ft width 150 ft
LOC 108.90 / hdg 29

(B) RW 10L length 9825 ft width 150 ft
ILS 111.30 / hdg 103

(C) RW 10R length 11000 ft width 150 ft
ILS 110.50 / hdg 103

(D) RW 21 length 6000 ft width 150 ft
LOC 108.90 / hdg 209

(E) RW 28L length 11000 ft width 150 ft
ILS 110.50 / hdg 283

(F) RW 28R length 9825 ft width 150 ft
ILS 111.30 / hdg 283

Location; KPDX
Day. 12 / Time. 11.53 Zulu
* Altimeter: 30.00
* Temperature: 08° c. 46.4°f.
* Wind from: 100° Speed 04 kn.
Dewpoint: 07° c.
Visibility: 10 Statute Miles.
Clouds: Few 5000 ft.
Clouds: Broken 6000 ft.

KPDX 121153Z 10004KT 10SM FEW050 BKN060 08/07 A3000 RMK AO2 RAB23E36 SLP158 P0000 60000 70029 T00830067 10100 20067 51017


Wind From 100°
Speed 04 kn.

 
 
jpsmedia worldairports.se 2019   terms of use